createdAt,value
2022-10-14T07:14:56.253Z,14.80
2022-10-14T07:37:23.087Z,19.10
2022-10-14T07:39:51.758Z,19.83
2022-10-14T07:44:54.374Z,20.57
2022-10-14T07:47:23.193Z,21.03
2022-10-14T07:49:51.784Z,20.43
2022-10-14T07:52:21.583Z,19.17
2022-10-14T07:54:50.015Z,19.90
2022-10-14T07:57:18.465Z,19.83
2022-10-14T07:59:47.370Z,20.10
2022-10-14T08:02:15.522Z,19.80
2022-10-14T08:04:43.888Z,19.47
2022-10-14T08:07:14.433Z,20.30
2022-10-14T08:09:44.397Z,19.90
2022-10-14T08:12:12.670Z,19.00
2022-10-14T08:14:41.332Z,19.70
2022-10-14T08:17:09.721Z,19.73
2022-10-14T08:19:38.209Z,19.60
2022-10-14T08:22:06.406Z,20.70
2022-10-14T08:24:34.594Z,20.03
2022-10-14T08:27:05.656Z,20.30
2022-10-14T08:29:33.923Z,19.83
2022-10-14T08:32:01.952Z,20.30
2022-10-14T08:34:30.329Z,19.97
2022-10-14T08:36:58.593Z,18.90
2022-10-14T08:39:26.842Z,19.47
2022-10-14T08:42:20.748Z,19.70
2022-10-14T08:44:56.871Z,19.37
2022-10-14T08:47:27.394Z,20.37
2022-10-14T08:50:01.589Z,19.63
2022-10-14T08:52:37.555Z,19.53
2022-10-14T08:55:18.909Z,19.73
2022-10-14T08:57:53.434Z,19.93
2022-10-14T09:00:23.817Z,19.23
2022-10-14T09:02:53.379Z,21.00
2022-10-14T09:05:24.740Z,20.53
2022-10-14T09:07:56.609Z,20.40
2022-10-14T09:10:32.156Z,21.63
2022-10-14T09:13:04.145Z,22.10
2022-10-14T09:15:37.411Z,21.40
2022-10-14T09:18:08.296Z,23.07
2022-10-14T09:20:36.721Z,23.67
2022-10-14T09:23:15.730Z,23.37
2022-10-14T09:25:53.997Z,25.10
2022-10-14T09:28:23.643Z,25.20
2022-10-14T09:30:53.528Z,24.03
2022-10-14T09:33:22.675Z,26.80
2022-10-14T09:35:51.347Z,28.03
2022-10-14T09:38:20.863Z,30.00
2022-10-14T09:40:52.409Z,29.07
2022-10-14T09:43:22.079Z,27.47
2022-10-14T09:45:55.867Z,27.43
2022-10-14T09:48:44.876Z,27.13
2022-10-14T09:51:21.996Z,26.90
2022-10-14T09:53:53.440Z,29.07
2022-10-14T09:56:30.681Z,32.40
2022-10-14T09:58:59.796Z,30.10
2022-10-14T10:01:33.824Z,28.90
2022-10-14T10:04:27.528Z,27.83
2022-10-14T10:06:57.017Z,27.67
2022-10-14T10:09:28.353Z,28.87
2022-10-14T10:11:56.806Z,27.17
2022-10-14T10:14:27.416Z,25.17
2022-10-14T10:17:18.245Z,25.80
2022-10-14T10:19:51.642Z,23.93
2022-10-14T10:22:26.772Z,22.00
2022-10-14T10:25:21.117Z,17.40
2022-10-14T10:27:51.038Z,15.17
2022-10-14T10:30:24.745Z,14.27
2022-10-14T10:33:19.074Z,14.07
2022-10-14T10:39:00.236Z,15.03
2022-10-14T10:41:47.710Z,14.07
2022-10-14T10:44:58.945Z,15.53
2022-10-14T10:47:45.763Z,17.50
2022-10-14T10:50:30.866Z,19.20
2022-10-14T10:53:29.486Z,19.90
2022-10-14T10:56:10.300Z,22.03
2022-10-14T10:58:44.317Z,24.27
2022-10-14T11:01:32.033Z,26.27
2022-10-14T11:04:18.518Z,25.07
2022-10-14T11:07:27.776Z,22.10
2022-10-14T11:10:21.756Z,21.30
2022-10-14T11:12:59.728Z,21.73
2022-10-14T11:15:43.403Z,20.10
2022-10-14T11:18:20.759Z,16.77
2022-10-14T11:21:04.229Z,9.63
2022-10-14T11:23:57.312Z,11.13
2022-10-14T11:26:38.461Z,11.40
2022-10-14T11:29:20.408Z,11.27
2022-10-14T11:31:53.718Z,10.90
2022-10-14T11:34:44.369Z,11.37
2022-10-14T11:37:26.532Z,10.17
2022-10-14T11:39:59.871Z,9.47
2022-10-14T11:42:38.828Z,8.70
2022-10-14T11:45:21.635Z,7.40
2022-10-14T11:47:54.336Z,7.00
2022-10-14T11:50:26.418Z,6.67
2022-10-14T11:52:59.488Z,9.07
2022-10-14T11:55:34.451Z,10.10
2022-10-14T11:58:07.989Z,11.40
2022-10-14T12:00:38.415Z,12.83
2022-10-14T12:03:14.450Z,12.77
2022-10-14T12:05:48.490Z,11.90
2022-10-14T12:08:27.023Z,11.50
2022-10-14T12:11:04.455Z,10.90
2022-10-14T12:13:37.812Z,11.13
2022-10-14T12:16:11.858Z,11.40
2022-10-14T12:18:40.686Z,11.43
2022-10-14T12:21:16.530Z,11.67
2022-10-14T12:23:49.755Z,12.57
2022-10-14T12:26:36.247Z,11.70
2022-10-14T12:29:05.883Z,11.33
2022-10-14T12:31:36.870Z,10.97
2022-10-14T12:34:36.383Z,10.43
2022-10-14T12:37:38.134Z,10.77
2022-10-14T12:40:30.273Z,10.23
2022-10-14T12:43:20.109Z,9.37
2022-10-14T12:46:11.467Z,9.03
2022-10-14T12:48:47.219Z,8.10
2022-10-14T12:51:17.725Z,7.77
2022-10-14T12:54:04.927Z,7.10
2022-10-14T12:56:37.643Z,6.17
2022-10-14T12:59:10.869Z,6.57
2022-10-14T13:01:39.739Z,6.30
2022-10-14T13:04:20.174Z,6.53
2022-10-14T13:07:41.520Z,6.47
2022-10-14T13:10:47.297Z,7.40
2022-10-14T13:13:53.662Z,7.47
2022-10-14T13:17:28.367Z,7.93
2022-10-14T13:19:56.654Z,9.07
2022-10-14T13:22:40.946Z,8.87
2022-10-14T13:25:18.290Z,10.10
2022-10-14T13:28:10.077Z,10.40
2022-10-14T13:30:48.782Z,10.77
2022-10-14T13:33:25.011Z,11.70
2022-10-14T13:36:06.936Z,12.00
2022-10-14T13:38:36.077Z,11.97
2022-10-14T13:41:06.893Z,12.60
2022-10-14T13:43:41.253Z,12.63
2022-10-14T13:46:15.505Z,12.00
2022-10-14T13:48:48.826Z,13.77
2022-10-14T13:51:36.676Z,13.07
2022-10-14T13:54:17.870Z,13.83
2022-10-14T13:57:19.792Z,13.73
2022-10-14T14:00:22.496Z,14.30
2022-10-14T14:02:36.624Z,14.70
2022-10-14T14:05:07.287Z,14.20
2022-10-14T14:08:20.790Z,14.20
2022-10-14T14:10:27.195Z,14.13
2022-10-14T14:12:55.717Z,14.77
2022-10-14T14:15:26.879Z,14.17
2022-10-14T14:17:55.888Z,13.87
2022-10-14T14:20:28.390Z,11.90
2022-10-14T14:23:00.368Z,12.50
2022-10-14T14:25:36.149Z,12.00
2022-10-14T14:28:07.149Z,11.07
2022-10-14T14:30:37.458Z,10.40
2022-10-14T14:33:08.491Z,9.60
2022-10-14T14:35:38.483Z,9.37
2022-10-14T14:38:06.907Z,9.70
2022-10-14T14:40:35.162Z,8.33
2022-10-14T14:43:05.705Z,8.43
2022-10-14T14:45:42.358Z,8.50
2022-10-14T14:48:14.314Z,8.00
2022-10-14T14:50:46.749Z,7.70
2022-10-14T14:53:18.771Z,7.43
2022-10-14T14:55:49.567Z,7.47
2022-10-14T14:58:29.368Z,6.60
2022-10-14T15:00:58.012Z,6.70
2022-10-14T15:03:28.752Z,7.30
2022-10-14T15:06:00.995Z,7.23
2022-10-14T15:08:33.341Z,7.63
2022-10-14T15:11:02.225Z,7.97
2022-10-14T15:13:34.130Z,9.80
2022-10-14T15:16:02.557Z,9.60
2022-10-14T15:18:31.272Z,9.47
2022-10-14T15:21:15.739Z,8.87
2022-10-14T15:24:00.681Z,9.27
2022-10-14T15:26:34.847Z,9.90
2022-10-14T15:29:15.131Z,11.20
2022-10-14T15:31:45.728Z,10.43
2022-10-14T15:34:21.754Z,12.00
2022-10-14T15:36:54.969Z,11.77
2022-10-14T15:39:23.805Z,12.07
2022-10-14T15:41:52.720Z,11.30
2022-10-14T15:44:21.084Z,11.53
2022-10-14T15:47:06.673Z,12.10
2022-10-14T15:49:39.280Z,15.33
2022-10-14T15:52:14.837Z,12.93
2022-10-14T15:54:43.604Z,12.93
2022-10-14T15:57:15.572Z,12.63
2022-10-14T15:59:45.135Z,12.03
2022-10-14T16:02:18.935Z,12.77
2022-10-14T16:05:07.090Z,12.53
2022-10-14T16:07:37.452Z,12.73
2022-10-14T16:10:07.446Z,12.80
2022-10-14T16:12:35.837Z,12.87
2022-10-14T16:17:34.237Z,13.07
